createdAt,value
2022-12-10T00:01:35.104Z,2.10
2022-12-10T00:04:36.615Z,1.99
2022-12-10T00:07:38.075Z,1.87
2022-12-10T00:10:42.256Z,2.01
2022-12-10T00:13:44.516Z,1.95
2022-12-10T00:16:46.068Z,1.94
2022-12-10T00:19:47.705Z,1.94
2022-12-10T00:22:49.183Z,1.88
2022-12-10T00:25:51.098Z,1.98
2022-12-10T00:28:53.867Z,1.82
2022-12-10T00:31:55.345Z,1.78
2022-12-10T00:34:56.820Z,1.81
2022-12-10T00:37:58.247Z,1.82
2022-12-10T00:41:00.368Z,1.63
2022-12-10T00:44:01.909Z,1.93
2022-12-10T00:47:03.995Z,1.97
2022-12-10T00:50:06.064Z,1.74
2022-12-10T00:53:07.674Z,1.91
2022-12-10T00:56:10.633Z,2.13
2022-12-10T00:59:12.179Z,2.07
2022-12-10T01:02:13.744Z,2.00
2022-12-10T01:05:17.561Z,1.98
2022-12-10T01:08:19.112Z,1.85
2022-12-10T01:11:22.637Z,1.93
2022-12-10T01:14:29.915Z,1.97
2022-12-10T01:17:31.388Z,1.93
2022-12-10T01:20:36.817Z,1.79
2022-12-10T01:23:40.483Z,1.81
2022-12-10T01:26:42.014Z,1.75
2022-12-10T01:29:43.490Z,1.80
2022-12-10T01:32:44.948Z,1.66
2022-12-10T01:35:46.611Z,1.49
2022-12-10T01:38:50.446Z,1.50
2022-12-10T01:41:55.427Z,1.51
2022-12-10T01:45:00.865Z,1.73
2022-12-10T01:48:07.798Z,1.60
2022-12-10T01:51:11.644Z,1.63
2022-12-10T01:54:18.522Z,1.65
2022-12-10T01:57:24.689Z,1.58
2022-12-10T02:00:26.263Z,1.53
2022-12-10T02:03:53.744Z,1.56
2022-12-10T02:07:02.632Z,1.81
2022-12-10T02:10:41.954Z,1.94
2022-12-10T02:13:50.978Z,1.88
2022-12-10T02:17:17.823Z,1.76
2022-12-10T02:20:48.348Z,1.69
2022-12-10T02:23:56.140Z,1.70
2022-12-10T02:27:16.776Z,1.71
2022-12-10T02:30:19.019Z,1.86
2022-12-10T02:33:23.642Z,1.93
2022-12-10T02:36:29.792Z,2.07
2022-12-10T02:39:39.106Z,2.10
2022-12-10T02:42:45.591Z,2.12
2022-12-10T02:45:47.869Z,2.19
2022-12-10T02:48:51.050Z,2.13
2022-12-10T02:51:54.014Z,2.11
2022-12-10T02:54:56.822Z,2.21
2022-12-10T02:58:21.291Z,2.33
2022-12-10T03:01:40.617Z,2.34
2022-12-10T03:05:08.617Z,2.16
2022-12-10T03:08:22.153Z,2.21
2022-12-10T03:11:24.370Z,2.23
2022-12-10T03:14:31.250Z,2.33
2022-12-10T03:17:33.442Z,2.35
2022-12-10T03:20:39.590Z,2.23
2022-12-10T03:23:46.030Z,2.18
2022-12-10T03:26:49.555Z,2.12
2022-12-10T03:29:57.357Z,2.21
2022-12-10T03:32:58.923Z,2.01
2022-12-10T03:36:01.047Z,2.10
2022-12-10T03:39:03.108Z,2.07
2022-12-10T03:42:06.601Z,2.05
2022-12-10T03:45:08.807Z,2.20
2022-12-10T03:48:10.283Z,2.26
2022-12-10T03:51:11.844Z,2.19
2022-12-10T03:54:13.293Z,2.14
2022-12-10T03:57:15.156Z,2.18
2022-12-10T04:00:16.867Z,2.32
2022-12-10T04:03:18.321Z,2.36
2022-12-10T04:06:20.093Z,2.36
2022-12-10T04:09:21.652Z,2.33
2022-12-10T04:12:23.117Z,2.28
2022-12-10T04:15:43.223Z,2.33
2022-12-10T04:18:44.657Z,2.23
2022-12-10T04:22:06.366Z,2.03
2022-12-10T04:25:29.910Z,2.20
2022-12-10T04:28:31.415Z,2.25
2022-12-10T04:31:32.828Z,2.27
2022-12-10T04:34:34.534Z,1.94
2022-12-10T04:37:36.032Z,2.20
2022-12-10T04:40:37.466Z,2.25
2022-12-10T04:43:38.906Z,2.26
2022-12-10T04:46:40.504Z,2.35
2022-12-10T04:49:42.223Z,2.19
2022-12-10T04:52:44.707Z,2.19
2022-12-10T04:55:46.138Z,2.20
2022-12-10T04:58:47.675Z,2.29
2022-12-10T05:01:49.706Z,2.38
2022-12-10T05:04:51.267Z,2.21
2022-12-10T05:07:52.708Z,2.20
2022-12-10T05:10:54.143Z,2.21
2022-12-10T05:13:56.781Z,2.31
2022-12-10T05:16:58.285Z,2.21
2022-12-10T05:19:59.711Z,2.05
2022-12-10T05:23:19.612Z,2.15
2022-12-10T05:26:23.765Z,2.04
2022-12-10T05:29:28.057Z,1.97
2022-12-10T05:32:29.515Z,2.07
2022-12-10T05:35:31.182Z,2.12
2022-12-10T05:38:34.146Z,2.17
2022-12-10T05:41:38.348Z,2.12
2022-12-10T05:44:39.855Z,2.06
2022-12-10T05:47:41.415Z,2.09
2022-12-10T05:50:43.549Z,1.91
2022-12-10T05:53:45.296Z,1.78
2022-12-10T05:56:46.754Z,1.76
2022-12-10T05:59:48.174Z,2.05
2022-12-10T06:02:52.718Z,1.98
2022-12-10T06:05:54.917Z,1.76
2022-12-10T06:08:56.989Z,1.60
2022-12-10T06:11:58.485Z,1.98
2022-12-10T06:14:59.942Z,2.03
2022-12-10T06:18:01.460Z,1.94
2022-12-10T06:21:07.969Z,2.03
2022-12-10T06:24:09.444Z,1.89
2022-12-10T06:27:10.992Z,1.99
2022-12-10T06:30:12.632Z,1.74
2022-12-10T06:33:14.051Z,1.72
2022-12-10T06:36:17.696Z,1.72
2022-12-10T06:39:19.097Z,2.01
2022-12-10T06:42:21.723Z,2.14
2022-12-10T06:45:23.367Z,1.96
2022-12-10T06:48:24.995Z,1.59
2022-12-10T06:51:26.601Z,1.74
2022-12-10T06:54:28.793Z,1.94
2022-12-10T06:57:30.368Z,1.85
2022-12-10T07:00:32.090Z,1.92
2022-12-10T07:03:34.032Z,2.03
2022-12-10T07:06:35.580Z,2.00
2022-12-10T07:09:37.156Z,2.13
2022-12-10T07:12:38.906Z,1.81
2022-12-10T07:15:40.370Z,1.91
2022-12-10T07:18:46.183Z,1.88
2022-12-10T07:21:52.067Z,1.90
2022-12-10T07:24:53.624Z,1.66
2022-12-10T07:27:57.856Z,1.78
2022-12-10T07:31:04.330Z,1.60
2022-12-10T07:34:05.944Z,1.96
2022-12-10T07:37:07.822Z,2.10
2022-12-10T07:40:12.022Z,1.78
2022-12-10T07:43:13.521Z,1.57
2022-12-10T07:46:22.020Z,1.28
2022-12-10T07:49:23.759Z,1.35
2022-12-10T07:52:25.180Z,1.55
2022-12-10T07:55:26.623Z,1.65
2022-12-10T07:58:28.515Z,1.92
2022-12-10T08:01:29.931Z,1.90
2022-12-10T08:04:31.433Z,1.74
2022-12-10T08:07:34.061Z,1.55
2022-12-10T08:10:39.844Z,1.64
2022-12-10T08:13:41.997Z,1.63
2022-12-10T08:16:43.551Z,1.87
2022-12-10T08:19:45.001Z,1.46
2022-12-10T08:22:46.568Z,1.52
2022-12-10T08:25:47.976Z,1.64
2022-12-10T08:28:50.346Z,1.95
2022-12-10T08:31:51.843Z,1.76
2022-12-10T08:34:53.325Z,1.74
2022-12-10T08:37:54.730Z,1.87
2022-12-10T08:40:56.322Z,1.64
2022-12-10T08:43:57.745Z,1.67
2022-12-10T08:46:59.184Z,1.67
2022-12-10T08:50:00.807Z,1.64
2022-12-10T08:53:02.419Z,1.74
2022-12-10T08:56:04.126Z,1.56
2022-12-10T08:59:06.018Z,1.61
2022-12-10T09:02:14.033Z,1.66
2022-12-10T09:05:15.834Z,1.50
2022-12-10T09:08:17.357Z,1.70
2022-12-10T09:11:30.484Z,1.39
2022-12-10T09:14:31.974Z,1.66
2022-12-10T09:17:35.783Z,1.63
2022-12-10T09:20:37.936Z,1.50
2022-12-10T09:23:40.688Z,1.68
2022-12-10T09:26:42.090Z,1.41
2022-12-10T09:29:43.556Z,1.52
2022-12-10T09:32:45.644Z,1.31
2022-12-10T09:35:47.102Z,1.46
2022-12-10T09:38:49.568Z,1.78
2022-12-10T09:41:50.854Z,1.82
2022-12-10T09:45:21.433Z,1.67
2022-12-10T09:48:33.241Z,1.71
2022-12-10T09:51:37.868Z,1.55
2022-12-10T09:54:45.121Z,1.20
2022-12-10T09:57:50.657Z,1.41
2022-12-10T10:01:07.149Z,1.71
2022-12-10T10:04:10.033Z,1.85
2022-12-10T10:07:21.635Z,1.72
2022-12-10T10:10:31.752Z,1.87
2022-12-10T10:13:59.441Z,2.02
2022-12-10T10:17:04.832Z,1.90
2022-12-10T10:20:06.868Z,1.82
2022-12-10T10:23:13.432Z,1.92
2022-12-10T10:26:14.946Z,1.78
2022-12-10T10:29:19.816Z,1.71
2022-12-10T10:32:50.151Z,1.47
2022-12-10T10:35:58.898Z,1.76
2022-12-10T10:39:28.405Z,1.46
2022-12-10T10:42:41.881Z,1.54
2022-12-10T10:45:49.363Z,1.69
2022-12-10T10:48:51.815Z,1.99
2022-12-10T10:51:55.168Z,2.04
2022-12-10T10:54:56.890Z,1.80
2022-12-10T10:57:58.858Z,1.87
2022-12-10T11:01:08.726Z,1.89
2022-12-10T11:04:10.492Z,1.72
2022-12-10T11:07:21.616Z,1.79
2022-12-10T11:10:25.926Z,1.84
2022-12-10T11:13:29.902Z,1.97
2022-12-10T11:16:31.369Z,1.60
2022-12-10T11:19:32.861Z,1.87
2022-12-10T11:22:34.825Z,2.01
2022-12-10T11:25:51.063Z,1.86
2022-12-10T11:29:21.870Z,1.88
2022-12-10T11:32:35.574Z,1.57
2022-12-10T11:35:55.598Z,1.60
2022-12-10T11:39:15.272Z,1.75
2022-12-10T11:42:28.724Z,2.00
2022-12-10T11:45:42.397Z,1.91
2022-12-10T11:48:52.876Z,1.78
2022-12-10T11:52:07.097Z,1.73
2022-12-10T11:55:36.428Z,1.70
2022-12-10T11:58:53.003Z,1.66
2022-12-10T12:02:20.826Z,1.60
2022-12-10T12:05:28.691Z,1.74
2022-12-10T12:08:50.791Z,1.65
2022-12-10T12:11:58.002Z,1.63
2022-12-10T12:15:06.400Z,1.74
2022-12-10T12:18:26.957Z,1.71
2022-12-10T12:21:28.457Z,1.77
2022-12-10T12:24:36.965Z,1.71
2022-12-10T12:27:47.871Z,1.86
2022-12-10T12:31:00.531Z,2.01
2022-12-10T12:34:16.703Z,2.14
2022-12-10T12:37:23.219Z,1.85
2022-12-10T12:40:40.976Z,1.69
2022-12-10T12:43:55.960Z,1.74
2022-12-10T12:47:03.154Z,1.99
2022-12-10T12:50:12.655Z,1.80
2022-12-10T12:53:17.056Z,1.59
2022-12-10T12:56:38.216Z,1.89
2022-12-10T13:00:08.274Z,1.86
2022-12-10T13:03:25.367Z,1.81
2022-12-10T13:06:33.334Z,1.64
2022-12-10T13:09:43.502Z,1.48
2022-12-10T13:13:08.330Z,1.63
2022-12-10T13:16:35.868Z,1.98
2022-12-10T13:19:37.519Z,1.96
2022-12-10T13:22:38.907Z,1.88
2022-12-10T13:25:57.898Z,1.88
2022-12-10T13:29:24.546Z,1.80
2022-12-10T13:32:32.676Z,1.88
2022-12-10T13:35:44.528Z,1.93
2022-12-10T13:39:19.174Z,1.89
2022-12-10T13:42:47.657Z,1.96
2022-12-10T13:45:49.132Z,2.13
2022-12-10T13:48:55.702Z,1.94
2022-12-10T13:52:07.555Z,2.15
2022-12-10T13:55:20.867Z,2.10
2022-12-10T13:58:34.526Z,2.17
2022-12-10T14:01:43.647Z,1.91
2022-12-10T14:04:51.122Z,1.87
2022-12-10T14:07:57.188Z,2.00
2022-12-10T14:11:00.510Z,2.25
2022-12-10T14:14:03.141Z,2.22
2022-12-10T14:17:22.561Z,1.94
2022-12-10T14:20:26.065Z,1.62
2022-12-10T14:23:39.867Z,2.00
2022-12-10T14:26:45.786Z,1.92
2022-12-10T14:30:00.029Z,2.00
2022-12-10T14:33:01.512Z,1.85
2022-12-10T14:36:03.536Z,1.99
2022-12-10T14:39:05.279Z,2.03
2022-12-10T14:42:07.933Z,2.23
2022-12-10T14:45:15.376Z,2.28
2022-12-10T14:48:17.425Z,2.34
2022-12-10T14:51:24.589Z,2.32
2022-12-10T14:54:33.898Z,2.24
2022-12-10T14:57:41.029Z,2.36
2022-12-10T15:00:42.552Z,2.20
2022-12-10T15:03:48.779Z,2.20
2022-12-10T15:06:50.313Z,2.15
2022-12-10T15:09:54.690Z,2.11
2022-12-10T15:12:57.063Z,2.08
2022-12-10T15:15:58.724Z,2.16
2022-12-10T15:19:29.409Z,2.36
2022-12-10T15:22:34.474Z,2.30
2022-12-10T15:25:46.116Z,2.25
2022-12-10T15:28:50.155Z,2.21
2022-12-10T15:31:58.272Z,2.32
2022-12-10T15:35:04.831Z,2.38
2022-12-10T15:38:06.297Z,2.33
2022-12-10T15:41:35.261Z,2.28
2022-12-10T15:44:46.769Z,2.29
2022-12-10T15:47:48.267Z,2.25
2022-12-10T15:50:50.827Z,2.23
2022-12-10T15:53:52.345Z,2.18
2022-12-10T15:56:53.897Z,2.14
2022-12-10T15:59:58.593Z,2.30
2022-12-10T16:03:06.335Z,2.26
2022-12-10T16:06:07.767Z,2.21
2022-12-10T16:09:10.571Z,2.06
2022-12-10T16:12:14.136Z,2.21
2022-12-10T16:15:21.983Z,2.14
2022-12-10T16:18:23.415Z,2.20
2022-12-10T16:21:24.896Z,2.24
2022-12-10T16:24:26.339Z,2.23
2022-12-10T16:27:28.278Z,2.28
2022-12-10T16:30:38.842Z,2.31
2022-12-10T16:33:42.811Z,2.27
2022-12-10T16:36:44.235Z,2.27
2022-12-10T16:39:51.406Z,2.28
2022-12-10T16:42:56.031Z,2.12
2022-12-10T16:45:57.896Z,2.05
2022-12-10T16:48:59.456Z,2.14
2022-12-10T16:52:00.861Z,2.21
2022-12-10T16:55:03.141Z,2.05
2022-12-10T16:58:10.509Z,2.08
2022-12-10T17:01:16.798Z,2.11
2022-12-10T17:04:18.250Z,2.24
2022-12-10T17:07:20.862Z,2.32
2022-12-10T17:10:47.995Z,2.26
2022-12-10T17:13:49.462Z,2.20
2022-12-10T17:16:52.761Z,2.04
2022-12-10T17:19:54.226Z,2.11
2022-12-10T17:22:55.997Z,2.04
2022-12-10T17:25:58.296Z,2.00
2022-12-10T17:29:10.017Z,1.96
2022-12-10T17:32:14.949Z,2.19
2022-12-10T17:35:16.905Z,2.27
2022-12-10T17:38:22.001Z,2.25
2022-12-10T17:41:23.433Z,2.32
2022-12-10T17:44:24.916Z,2.43
2022-12-10T17:47:26.376Z,2.36
2022-12-10T17:50:34.683Z,2.30
2022-12-10T17:53:36.404Z,2.04
2022-12-10T17:56:38.081Z,2.22
2022-12-10T17:59:43.379Z,2.10
2022-12-10T18:02:44.859Z,2.16
2022-12-10T18:05:46.805Z,2.10
2022-12-10T18:08:49.688Z,1.90
2022-12-10T18:11:51.741Z,1.92
2022-12-10T18:14:53.127Z,1.81
2022-12-10T18:17:54.652Z,1.62
2022-12-10T18:20:56.117Z,1.82
2022-12-10T18:23:57.656Z,1.47
2022-12-10T18:26:59.249Z,1.90
2022-12-10T18:30:00.976Z,2.08
2022-12-10T18:33:02.423Z,2.03
2022-12-10T18:36:04.504Z,2.14
2022-12-10T18:39:21.863Z,1.70
2022-12-10T18:42:23.291Z,1.59
2022-12-10T18:45:24.777Z,1.29
2022-12-10T18:48:26.249Z,1.28
2022-12-10T18:51:27.942Z,1.50
2022-12-10T18:54:29.355Z,1.50
2022-12-10T18:57:34.168Z,1.79
2022-12-10T19:00:37.854Z,1.73
2022-12-10T19:03:43.465Z,1.70
2022-12-10T19:06:49.575Z,1.93
2022-12-10T19:09:52.600Z,1.83
2022-12-10T19:12:54.054Z,2.06
2022-12-10T19:15:55.631Z,2.04
2022-12-10T19:19:02.075Z,2.06
2022-12-10T19:22:04.069Z,2.06
2022-12-10T19:25:06.019Z,2.02
2022-12-10T19:28:07.636Z,2.05
2022-12-10T19:31:13.072Z,1.98
2022-12-10T19:34:16.438Z,2.12
2022-12-10T19:37:17.949Z,2.17
2022-12-10T19:40:23.542Z,2.29
2022-12-10T19:43:24.960Z,2.11
2022-12-10T19:46:27.500Z,1.74
2022-12-10T19:49:29.063Z,1.94
2022-12-10T19:52:30.490Z,2.01
2022-12-10T19:55:32.107Z,2.01
2022-12-10T19:58:33.532Z,1.75
2022-12-10T20:01:35.046Z,1.72
2022-12-10T20:04:36.547Z,1.55
2022-12-10T20:07:38.081Z,1.59
2022-12-10T20:10:39.574Z,1.42
2022-12-10T20:13:43.110Z,1.69
2022-12-10T20:16:46.383Z,1.85
2022-12-10T20:19:48.165Z,1.83
2022-12-10T20:22:50.411Z,1.80
2022-12-10T20:25:51.945Z,1.92
2022-12-10T20:28:53.423Z,1.79
2022-12-10T20:31:56.597Z,1.81
2022-12-10T20:34:58.212Z,1.95
2022-12-10T20:37:59.723Z,2.05
2022-12-10T20:41:01.191Z,2.06
2022-12-10T20:44:02.650Z,2.00
2022-12-10T20:47:09.670Z,1.94
2022-12-10T20:50:15.780Z,1.97
2022-12-10T20:53:17.401Z,1.98
2022-12-10T20:56:22.106Z,2.03
2022-12-10T20:59:23.977Z,1.90
2022-12-10T21:02:25.592Z,1.85
2022-12-10T21:05:26.997Z,1.84
2022-12-10T21:08:28.829Z,1.81
2022-12-10T21:11:30.355Z,1.80
2022-12-10T21:17:53.338Z,1.78
2022-12-10T21:20:55.805Z,1.59
2022-12-10T21:23:58.183Z,1.54
2022-12-10T21:26:59.613Z,1.51
2022-12-10T21:30:01.060Z,1.58
2022-12-10T21:33:02.681Z,1.54
2022-12-10T21:36:04.393Z,1.46
2022-12-10T21:39:05.922Z,1.46
2022-12-10T21:42:26.277Z,1.47
2022-12-10T21:45:31.531Z,1.38
2022-12-10T21:48:32.987Z,1.33
2022-12-10T21:51:39.545Z,1.03
2022-12-10T21:54:41.896Z,1.26
2022-12-10T21:57:43.345Z,1.32
2022-12-10T22:00:45.121Z,1.20
2022-12-10T22:03:47.149Z,1.01
2022-12-10T22:06:48.576Z,1.23
2022-12-10T22:09:50.795Z,1.21
2022-12-10T22:12:52.346Z,1.37
2022-12-10T22:15:53.866Z,1.17
2022-12-10T22:18:55.417Z,1.01
2022-12-10T22:21:56.841Z,0.92
2022-12-10T22:24:58.267Z,1.12
2022-12-10T22:27:59.723Z,1.27
2022-12-10T22:31:01.219Z,1.36
2022-12-10T22:34:02.849Z,1.41
2022-12-10T22:37:04.253Z,1.03
2022-12-10T22:40:07.295Z,1.04
2022-12-10T22:43:41.094Z,1.29
2022-12-10T22:46:30.681Z,1.42
2022-12-10T22:49:37.195Z,1.39
2022-12-10T22:52:40.362Z,1.40
2022-12-10T22:55:42.062Z,1.25
2022-12-10T22:58:44.300Z,1.31
2022-12-10T23:01:45.750Z,1.53
2022-12-10T23:04:53.339Z,1.66
2022-12-10T23:07:54.805Z,1.71
2022-12-10T23:10:56.508Z,1.68
2022-12-10T23:13:57.981Z,1.67
2022-12-10T23:16:59.591Z,1.62
2022-12-10T23:20:01.019Z,1.57
2022-12-10T23:23:02.512Z,1.59
2022-12-10T23:26:03.923Z,1.72
2022-12-10T23:29:05.772Z,1.67
2022-12-10T23:32:07.227Z,1.62
2022-12-10T23:35:09.565Z,1.55
2022-12-10T23:38:11.468Z,1.63
2022-12-10T23:41:12.889Z,1.64
2022-12-10T23:44:14.314Z,1.69
2022-12-10T23:47:15.703Z,1.65
2022-12-10T23:50:17.286Z,1.60
2022-12-10T23:53:19.332Z,1.54
2022-12-10T23:56:21.377Z,1.38
2022-12-10T23:59:22.805Z,1.38
